Terminal Aerodrome Forecast
Issued by NWS Boston, MA

Home | Current Version | Previous Version | Text Only | Print | Product List | Glossary On
Versions: 1 2 3 4 5 6 7 8 9 10 11 12 13 14 15 16 17 18 19 20 21 22 23 24 25 26 27 28
000
FTUS41 KBOX 022322
TAFORH
TAF
KORH 022322Z 0300/0324 30004KT 4SM -DZ BR OVC005
     FM030900 VRB03KT 2SM -RA BR OVC006
     FM031300 VRB03KT 4SM BR VCSH OVC008
     FM031600 02004KT P6SM OVC008
     FM032100 08005KT P6SM OVC015=

USA.gov is the U.S. government's official web portal to all federal, state and local government web resources and services.